Home > Products > Valid Products > TAF

000
FTUS43 KILX 230500
TAFSPI
TAF
KSPI 230527Z 2306/2406 13004KT P6SM SCT250
     FM231500 18009KT P6SM BKN200
     FM232100 18009KT P6SM VCSH SCT030 BKN040
     FM240100 22005KT P6SM BKN035=



000
FTUS43 KILX 230500
TAFBMI
TAF
KBMI 230527Z 2306/2406 15004KT P6SM SCT250
     FM231500 19010G15KT P6SM BKN200
     FM232100 20010KT P6SM VCSH SCT030 BKN040
     FM240200 22006KT P6SM BKN035=



000
FTUS43 KILX 230500
TAFDEC
TAF
KDEC 230527Z 2306/2406 11005KT P6SM SCT250
     FM231500 19010KT P6SM BKN200
     FM232300 19008KT P6SM VCSH SCT030 BKN040
     FM240300 22005KT P6SM BKN035=



000
FTUS43 KILX 230500
TAFPIA
TAF
KPIA 230527Z 2306/2406 15004KT P6SM BKN250
     FM231500 19010G15KT P6SM BKN200
     FM232000 18010KT P6SM VCSH SCT030 BKN040
     FM240100 23005KT P6SM BKN035=



000
FTUS43 KILX 230500
TAFCMI
TAF
KCMI 230527Z 2306/2406 12004KT P6SM SCT250
     FM231500 18009KT P6SM BKN200
     FM240000 19007KT P6SM VCSH SCT030 BKN040=



000
FTUS43 KILX 222300
TAFDEC
TAF
KDEC 222327Z 2300/2324 11005KT P6SM SKC
     FM230900 16004KT P6SM SCT250
     FM231800 19009KT P6SM BKN250=



000
FTUS43 KILX 222300
TAFSPI
TAF
KSPI 222327Z 2300/2324 12005KT P6SM SKC
     FM230800 14004KT P6SM SCT250
     FM231200 16008KT P6SM SCT250
     FM232100 18009KT P6SM VCSH SCT030 BKN050=



000
FTUS43 KILX 222300
TAFBMI
TAF
KBMI 222327Z 2300/2324 13005KT P6SM SKC
     FM230600 15006KT P6SM FEW250
     FM231500 19010KT P6SM BKN250
     FM232100 20010KT P6SM VCSH SCT030 BKN050=



000
FTUS43 KILX 222300
TAFPIA
TAF
KPIA 222327Z 2300/2324 13004KT P6SM SKC
     FM230600 14004KT P6SM SCT250
     FM231200 17005KT P6SM BKN250
     FM232000 18009KT P6SM VCSH SCT030 BKN050=



000
FTUS43 KILX 222300
TAFCMI
TAF
KCMI 222327Z 2300/2324 10004KT P6SM SKC
     FM230900 14005KT P6SM SCT250
     FM231500 16007KT P6SM SCT250
     FM231800 19009KT P6SM BKN250=



000
FTUS43 KILX 221700
TAFSPI
TAF
KSPI 221730Z 2218/2318 13007KT P6SM SKC
     FM230800 14004KT P6SM BKN250=



000
FTUS43 KILX 221700
TAFCMI
TAF
KCMI 221730Z 2218/2318 09007KT P6SM SKC
     FM230900 12005KT P6SM SCT250=



000
FTUS43 KILX 221700
TAFBMI
TAF
KBMI 221730Z 2218/2318 13008KT P6SM SKC
     FM230800 15006KT P6SM BKN250=



000
FTUS43 KILX 221700
TAFBMI
TAF
KBMI 221730Z 2218/2318 13008KT P6SM SKC
     FM230800 15006KT P6SM BKN250=



000
FTUS43 KILX 221700
TAFDEC
TAF
KDEC 221730Z 2218/2318 11007KT P6SM SKC
     FM230900 14004KT P6SM SCT250=



000
FTUS43 KILX 221700
TAFDEC
TAF
KDEC 221730Z 2218/2318 11007KT P6SM SKC
     FM230900 14004KT P6SM SCT250=



000
FTUS43 KILX 221700
TAFSPI
TAF
KSPI 221730Z 2218/2318 13007KT P6SM SKC
     FM230800 14004KT P6SM BKN250=



000
FTUS43 KILX 221700
TAFCMI
TAF
KCMI 221730Z 2218/2318 09007KT P6SM SKC
     FM230900 12005KT P6SM SCT250=



000
FTUS43 KILX 221700
TAFPIA
TAF
KPIA 221730Z 2218/2318 15007KT P6SM SKC
     FM230600 14004KT P6SM BKN250=



000
FTUS43 KILX 221700
TAFPIA
TAF
KPIA 221730Z 2218/2318 15007KT P6SM SKC
     FM230600 14004KT P6SM BKN250=



000
FTUS43 KILX 221100
TAFCMI
TAF
KCMI 221127Z 2212/2312 VRB05KT P6SM SKC
      TEMPO 2212/2213 5SM BR
     FM221900 09007KT P6SM SKC
     FM230900 12005KT P6SM SCT250=



000
FTUS43 KILX 221100
TAFBMI
TAF
KBMI 221127Z 2212/2312 VRB06KT P6SM SKC
      TEMPO 2212/2213 5SM BR
     FM221800 13008KT P6SM SKC
     FM230800 15006KT P6SM BKN250=



000
FTUS43 KILX 221100
TAFSPI
TAF
KSPI 221127Z 2212/2312 VRB05KT P6SM SKC
      TEMPO 2212/2213 5SM BR
     FM221800 13007KT P6SM SKC
     FM230800 14004KT P6SM BKN250=



000
FTUS43 KILX 221100
TAFDEC
TAF
KDEC 221127Z 2212/2312 VRB05KT P6SM SKC
      TEMPO 2212/2213 5SM BR
     FM221900 11007KT P6SM SKC
     FM230900 14004KT P6SM SCT250=



000
FTUS43 KILX 221100
TAFPIA
TAF
KPIA 221127Z 2212/2312 VRB05KT P6SM SKC
      TEMPO 2212/2213 5SM BR
     FM221800 15007KT P6SM SKC
     FM230600 14004KT P6SM BKN250=



000
FTUS43 KILX 220500
TAFBMI
TAF
KBMI 220531Z 2206/2306 06006KT P6SM SCT030
     FM220900 06006KT P6SM SKC
      TEMPO 2210/2212 4SM BR
     FM221500 12008KT P6SM SKC=



000
FTUS43 KILX 220500
TAFPIA
TAF
KPIA 220531Z 2206/2306 06006KT P6SM SKC
      TEMPO 2210/2212 4SM BR
     FM221500 13007KT P6SM SKC=



000
FTUS43 KILX 220500
TAFSPI
TAF
KSPI 220531Z 2206/2306 07005KT P6SM SKC
      TEMPO 2210/2212 4SM BR
     FM221500 12006KT P6SM SKC=



000
FTUS43 KILX 220500
TAFDEC
TAF
KDEC 220531Z 2206/2306 06006KT P6SM SKC
      TEMPO 2210/2212 4SM BR
     FM221500 10007KT P6SM SKC=



000
FTUS43 KILX 220500
TAFCMI
TAF
KCMI 220531Z 2206/2306 04010KT P6SM OVC030
     FM220900 05006KT P6SM SCT030
      TEMPO 2210/2212 4SM BR
     FM221500 07008KT P6SM SKC
     FM230000 12006KT P6SM SKC=



000
FTUS43 KILX 220500
TAFBMI
TAF
KBMI 220531Z 2206/2306 06006KT P6SM SCT030
     FM220900 06006KT P6SM SKC
      TEMPO 2210/2212 4SM BR
     FM221500 12008KT P6SM SKC=



000
FTUS43 KILX 220500
TAFSPI
TAF
KSPI 220531Z 2206/2306 07005KT P6SM SKC
      TEMPO 2210/2212 4SM BR
     FM221500 12006KT P6SM SKC=



000
FTUS43 KILX 220500
TAFDEC
TAF
KDEC 220531Z 2206/2306 06006KT P6SM SKC
      TEMPO 2210/2212 4SM BR
     FM221500 10007KT P6SM SKC=



000
FTUS43 KILX 220500
TAFCMI
TAF
KCMI 220531Z 2206/2306 04010KT P6SM OVC030
     FM220900 05006KT P6SM SCT030
      TEMPO 2210/2212 4SM BR
     FM221500 07008KT P6SM SKC
     FM230000 12006KT P6SM SKC=



000
FTUS43 KILX 220500
TAFPIA
TAF
KPIA 220531Z 2206/2306 06006KT P6SM SKC
      TEMPO 2210/2212 4SM BR
     FM221500 13007KT P6SM SKC=



000
FTUS43 KILX 220200 AAA
TAFCMI
TAF AMD
KCMI 220235Z 2203/2224 04007KT P6SM BKN030
     FM220700 05005KT P6SM SCT030
      TEMPO 2210/2212 4SM BR
     FM221500 07008KT P6SM SKC=



000
FTUS43 KILX 212300
TAFCMI
TAF
KCMI 212320Z 2200/2224 05007KT P6SM SCT030
     FM220300 05005KT P6SM SKC
      TEMPO 2210/2212 4SM BR
     FM221500 07008KT P6SM SKC=



000
FTUS43 KILX 212300
TAFSPI
TAF
KSPI 212320Z 2200/2224 06005KT P6SM SKC
      TEMPO 2210/2212 4SM BR
     FM221500 12006KT P6SM SKC=



000
FTUS43 KILX 212300
TAFDEC
TAF
KDEC 212320Z 2200/2224 06007KT P6SM SKC
      TEMPO 2210/2212 4SM BR
     FM221500 10007KT P6SM SKC=



000
FTUS43 KILX 212300
TAFSPI
TAF
KSPI 212320Z 2200/2224 06005KT P6SM SKC
      TEMPO 2210/2212 4SM BR
     FM221500 12006KT P6SM SKC=



000
FTUS43 KILX 212300
TAFBMI
TAF
KBMI 212320Z 2200/2224 06006KT P6SM SKC
      TEMPO 2210/2212 4SM BR
     FM221500 12008KT P6SM SKC=



000
FTUS43 KILX 212300
TAFCMI
TAF
KCMI 212320Z 2200/2224 05007KT P6SM SCT030
     FM220300 05005KT P6SM SKC
      TEMPO 2210/2212 4SM BR
     FM221500 07008KT P6SM SKC=



000
FTUS43 KILX 212300
TAFPIA
TAF
KPIA 212320Z 2200/2224 06004KT P6SM SKC
      TEMPO 2210/2212 4SM BR
     FM221500 13007KT P6SM SKC=



000
FTUS43 KILX 212300
TAFDEC
TAF
KDEC 212320Z 2200/2224 06007KT P6SM SKC
      TEMPO 2210/2212 4SM BR
     FM221500 10007KT P6SM SKC=



000
FTUS43 KILX 212300
TAFPIA
TAF
KPIA 212320Z 2200/2224 06004KT P6SM SKC
      TEMPO 2210/2212 4SM BR
     FM221500 13007KT P6SM SKC=



000
FTUS43 KILX 212300
TAFBMI
TAF
KBMI 212320Z 2200/2224 06006KT P6SM SKC
      TEMPO 2210/2212 4SM BR
     FM221500 12008KT P6SM SKC=



000
FTUS43 KILX 212100 AAA
TAFCMI
TAF AMD
KCMI 212125Z 2121/2218 03012KT P6SM BKN040
     FM220000 04006KT P6SM SCT030
     FM220300 04004KT P6SM SKC
      TEMPO 2210/2212 4SM BR=



000
FTUS43 KILX 211700
TAFCMI
TAF
KCMI 211721Z 2118/2218 36012KT P6SM BKN040
     FM220000 04004KT P6SM SKC
      TEMPO 2210/2212 4SM BR=



000
FTUS43 KILX 211700
TAFSPI
TAF
KSPI 211721Z 2118/2218 02010KT P6SM SCT040
     FM220000 06004KT P6SM SKC
      TEMPO 2210/2212 4SM BR=



000
FTUS43 KILX 211700
TAFPIA
TAF
KPIA 211721Z 2118/2218 03007KT P6SM SCT040
     FM220000 08004KT P6SM SKC
      TEMPO 2210/2212 4SM BR=



000
FTUS43 KILX 211700
TAFBMI
TAF
KBMI 211721Z 2118/2218 01010KT P6SM SCT040
     FM220000 06006KT P6SM SKC
      TEMPO 2210/2212 4SM BR=



000
FTUS43 KILX 211700
TAFDEC
TAF
KDEC 211721Z 2118/2218 01009G20KT P6SM SCT040
     FM220000 04004KT P6SM SKC
      TEMPO 2210/2212 4SM BR=



000
FTUS43 KILX 211100
TAFDEC
TAF
KDEC 211136Z 2112/2212 01007KT P6SM SCT040
      TEMPO 2112/2114 4SM BR
     FM220000 04004KT P6SM SKC
      TEMPO 2210/2212 4SM BR=



000
FTUS43 KILX 211100
TAFBMI
TAF
KBMI 211136Z 2112/2212 01010KT P6SM SCT040
     FM220000 06006KT P6SM SKC
      TEMPO 2210/2212 4SM BR=



000
FTUS43 KILX 211100
TAFDEC
TAF
KDEC 211136Z 2112/2212 01007KT P6SM SCT040
      TEMPO 2112/2114 4SM BR
     FM220000 04004KT P6SM SKC
      TEMPO 2210/2212 4SM BR=



000
FTUS43 KILX 211100
TAFSPI
TAF
KSPI 211136Z 2112/2212 02007KT P6SM SCT040
     FM220000 06004KT P6SM SKC
      TEMPO 2210/2212 4SM BR=



000
FTUS43 KILX 211100
TAFPIA
TAF
KPIA 211136Z 2112/2212 03007KT P6SM SCT040
     FM220000 08004KT P6SM SKC
      TEMPO 2210/2212 4SM BR=



000
FTUS43 KILX 211100
TAFCMI
TAF
KCMI 211136Z 2112/2212 36009KT P6SM BKN040
      TEMPO 2112/2114 4SM BR
     FM220000 04004KT P6SM SKC
      TEMPO 2210/2212 4SM BR=



000
FTUS43 KILX 211100
TAFBMI
TAF
KBMI 211136Z 2112/2212 01010KT P6SM SCT040
     FM220000 06006KT P6SM SKC
      TEMPO 2210/2212 4SM BR=



000
FTUS43 KILX 211100
TAFSPI
TAF
KSPI 211136Z 2112/2212 02007KT P6SM SCT040
     FM220000 06004KT P6SM SKC
      TEMPO 2210/2212 4SM BR=



000
FTUS43 KILX 211100
TAFCMI
TAF
KCMI 211136Z 2112/2212 36009KT P6SM BKN040
      TEMPO 2112/2114 4SM BR
     FM220000 04004KT P6SM SKC
      TEMPO 2210/2212 4SM BR=



000
FTUS43 KILX 211100
TAFPIA
TAF
KPIA 211136Z 2112/2212 03007KT P6SM SCT040
     FM220000 08004KT P6SM SKC
      TEMPO 2210/2212 4SM BR=



000
FTUS43 KILX 210500
TAFBMI
TAF
KBMI 210536Z 2106/2206 03007KT P6SM SCT060
     FM211400 02011KT P6SM SCT050
     FM220000 06008KT P6SM SKC=



000
FTUS43 KILX 210500
TAFCMI
TAF
KCMI 210536Z 2106/2206 03007KT P6SM BKN060
     FM211400 01011KT P6SM BKN050
     FM220000 03006KT P6SM SCT050=



000
FTUS43 KILX 210500
TAFSPI
TAF
KSPI 210536Z 2106/2206 VRB03KT P6SM SKC
     FM211400 03008KT P6SM FEW050
     FM220000 05005KT P6SM SKC=



000
FTUS43 KILX 210500
TAFDEC
TAF
KDEC 210536Z 2106/2206 VRB04KT P6SM FEW060
     FM211400 02010KT P6SM SCT050
     FM220000 04006KT P6SM SKC=



000
FTUS43 KILX 210500
TAFPIA
TAF
KPIA 210536Z 2106/2206 VRB06KT P6SM FEW060
     FM211400 03008KT P6SM SCT050
     FM220000 07004KT P6SM SKC=



000
FTUS43 KILX 210300 AAA
TAFBMI
TAF AMD
KBMI 210333Z 2104/2124 01008KT P6SM BKN060
     FM210800 VRB06KT P6SM SCT060
     FM211300 02010KT P6SM SCT040=



000
FTUS43 KILX 210300 AAA
TAFCMI
TAF AMD
KCMI 210333Z 2104/2124 36005KT P6SM BKN060
     FM210800 VRB06KT P6SM SCT060
     FM211300 01011KT P6SM SCT040=



000
FTUS43 KILX 202300 RRA
TAFCMI
TAF
KCMI 202341Z 2100/2124 31009KT P6SM SCT060
     FM210100 VRB06KT P6SM SCT040
     FM211300 01011KT P6SM SCT040=



000
FTUS43 KILX 202300 RRA
TAFDEC
TAF
KDEC 202341Z 2100/2124 32009KT P6SM FEW050
     FM210100 VRB06KT P6SM SCT040
     FM211300 02010KT P6SM SKC=



000
FTUS43 KILX 202300 RRA
TAFPIA
TAF
KPIA 202341Z 2100/2124 32005KT P6SM FEW060
     FM210300 VRB05KT P6SM FEW040
     FM211300 03008KT P6SM SCT040=



000
FTUS43 KILX 202300 RRA
TAFSPI
TAF
KSPI 202341Z 2100/2124 32005KT P6SM SKC
     FM210100 VRB04KT P6SM SCT040
     FM211300 02008KT P6SM SKC=



000
FTUS43 KILX 202300 RRA
TAFBMI
TAF
KBMI 202341Z 2100/2124 32009KT P6SM FEW050
     FM210100 VRB06KT P6SM SCT040
     FM211300 02010KT P6SM SCT040=



000
FTUS43 KILX 202300 AAB
TAFSPI
TAF AMD
KSPI 202318Z 2023/2118 32005KT P6SM FEW050
     FM210100 VRB04KT P6SM SCT040
     FM211300 01007KT P6SM SKC=



000
FTUS43 KILX 202300 AAB
TAFPIA
TAF AMD
KPIA 202317Z 2023/2118 32005KT P6SM FEW060
     FM210100 VRB04KT P6SM SCT040
     FM211300 36008KT P6SM SCT040=



000
FTUS43 KILX 201900 AAA
TAFPIA
TAF AMD
KPIA 201958Z 2020/2118 31010G20KT P6SM SKC
     FM210100 VRB04KT P6SM SCT040
     FM211300 36008KT P6SM SCT040=



000
FTUS43 KILX 201900 AAA
TAFSPI
TAF AMD
KSPI 201958Z 2020/2118 31011G22KT P6SM SKC
     FM210100 VRB04KT P6SM SCT040
     FM211300 01007KT P6SM SKC=



000
FTUS43 KILX 201700
TAFBMI
TAF
KBMI 201735Z 2018/2118 31013KT P6SM SKC
     FM210100 VRB06KT P6SM SCT040
     FM211300 01009KT P6SM SCT040=



000
FTUS43 KILX 201700
TAFPIA
TAF
KPIA 201735Z 2018/2118 31010KT P6SM SKC
     FM210100 VRB04KT P6SM SCT040
     FM211300 36008KT P6SM SCT040=



000
FTUS43 KILX 201700
TAFSPI
TAF
KSPI 201735Z 2018/2118 31011KT P6SM SKC
     FM210100 VRB04KT P6SM SCT040
     FM211300 01007KT P6SM SKC=



000
FTUS43 KILX 201700
TAFDEC
TAF
KDEC 201735Z 2018/2118 31011KT P6SM SKC
     FM210100 VRB06KT P6SM SCT040
     FM211300 36008KT P6SM SKC=



000
FTUS43 KILX 201700
TAFCMI
TAF
KCMI 201735Z 2018/2118 30012KT P6SM SKC
     FM210100 VRB06KT P6SM SCT040
     FM211300 01008KT P6SM SCT040=



000
FTUS43 KILX 201100 RRA
TAFPIA
TAF
KPIA 201143Z 2012/2112 24005KT P6SM SKC
     FM201400 31010KT P6SM SKC
     FM210100 VRB04KT P6SM SCT040=



000
FTUS43 KILX 201100 RRA
TAFDEC
TAF
KDEC 201143Z 2012/2112 24009KT P6SM SCT050
     FM201600 31011KT P6SM SKC
     FM210100 VRB06KT P6SM SCT040=



000
FTUS43 KILX 201100 RRA
TAFBMI
TAF
KBMI 201143Z 2012/2112 24011KT P6SM SKC
     FM201500 31013KT P6SM SKC
     FM210100 VRB06KT P6SM SCT040=



000
FTUS43 KILX 201100 RRA
TAFSPI
TAF
KSPI 201143Z 2012/2112 24005KT P6SM SKC
     FM201500 31011KT P6SM SKC
     FM210100 VRB04KT P6SM SCT040=



000
FTUS43 KILX 201100 RRA
TAFCMI
TAF
KCMI 201143Z 2012/2112 23009KT P6SM SCT050
     FM201700 30012KT P6SM SKC
     FM210100 VRB06KT P6SM SCT040=



    US Dept of Commerce
    National Oceanic and Atmospheric Administration
    National Weather Service
    1325 East West Highway
    Silver Spring, MD 20910
    Page Author: NWS Internet Services Team
Disclaimer
Information Quality
Credits
Glossary
Privacy Policy
Freedom of Information Act (FOIA)
About Us
Career Opportunities